Time;durP1;ratioP1;P1;durP2;ratioP2;P2;SDS_P1;SDS_P2;PMS_P1;PMS_P2;Temp;Humidity;BMP_temperature;BMP_pressure;BME280_temperature;BME280_humidity;BME280_pressure;Samples;Min_cycle;Max_cycle;Signal;HPM_P1;HPM_P2
2022/02/13 00:01:46;;;;;;;28.23;11.40;;;;;;;0.73;54.69;101373.81;5051382;28;20132;-73
2022/02/13 00:04:14;;;;;;;22.73;8.35;;;;;;;0.73;55.00;101373.81;5049799;28;20124;-79
2022/02/13 00:06:41;;;;;;;22.20;8.80;;;;;;;0.74;54.99;101365.13;5049945;28;20049;-81
2022/02/13 00:09:09;;;;;;;28.50;10.30;;;;;;;0.75;54.91;101363.38;5050516;28;20564;-79
2022/02/13 00:11:37;;;;;;;18.27;9.18;;;;;;;0.75;55.00;101364.22;5050692;28;20584;-79
2022/02/13 00:14:05;;;;;;;17.92;9.30;;;;;;;0.77;55.07;101359.00;5051170;28;20056;-76
2022/02/13 00:16:31;;;;;;;19.00;9.10;;;;;;;0.80;55.07;101366.78;5050866;28;20053;-78
2022/02/13 00:18:58;;;;;;;18.33;8.75;;;;;;;0.81;55.06;101360.72;5049182;28;20122;-81
2022/02/13 00:21:25;;;;;;;17.65;8.27;;;;;;;0.84;54.94;101362.41;5050671;28;20049;-81
2022/02/13 00:23:52;;;;;;;15.38;8.52;;;;;;;0.83;54.84;101361.53;5052636;28;20137;-80
2022/02/13 00:26:21;;;;;;;19.77;8.82;;;;;;;0.86;55.01;101358.03;5049543;28;20049;-81
2022/02/13 00:28:48;;;;;;;18.73;8.77;;;;;;;0.84;55.13;101354.59;5051823;28;20057;-81
2022/02/13 00:31:15;;;;;;;19.85;8.48;;;;;;;0.83;54.73;101355.47;5035316;28;20084;-80
2022/02/13 00:33:42;;;;;;;18.77;8.93;;;;;;;0.83;54.79;101340.75;5054342;28;20120;-75
2022/02/13 00:36:09;;;;;;;19.95;8.70;;;;;;;0.82;55.03;101332.97;5054825;28;20548;-80
2022/02/13 00:38:36;;;;;;;18.38;8.75;;;;;;;0.83;54.77;101337.25;5052928;28;20108;-78
2022/02/13 00:41:02;;;;;;;18.55;9.57;;;;;;;0.84;54.93;101329.44;5050006;28;20104;-79
2022/02/13 00:43:31;;;;;;;20.42;10.27;;;;;;;0.82;54.91;101332.97;5050740;28;20119;-81
2022/02/13 00:45:58;;;;;;;21.45;10.15;;;;;;;0.81;54.84;101324.31;5054619;28;20136;-76
2022/02/13 00:48:25;;;;;;;20.73;9.30;;;;;;;0.78;54.96;101313.94;5051638;28;20084;-82
2022/02/13 00:50:52;;;;;;;18.52;10.23;;;;;;;0.79;55.07;101312.19;5051856;28;20077;-76
2022/02/13 00:53:20;;;;;;;16.77;8.82;;;;;;;0.77;55.05;101314.81;5049802;28;20128;-82
2022/02/13 00:55:47;;;;;;;22.13;10.30;;;;;;;0.74;54.66;101307.94;5049345;28;20136;-81
2022/02/13 00:58:14;;;;;;;16.30;9.55;;;;;;;0.71;55.02;101304.50;5058028;28;20037;-75
2022/02/13 01:00:43;;;;;;;21.92;10.38;;;;;;;0.68;55.14;101294.16;5064596;28;20056;-79
2022/02/13 01:03:11;;;;;;;22.73;11.48;;;;;;;0.63;55.14;101291.63;5063159;28;20045;-78
2022/02/13 01:05:38;;;;;;;18.05;8.88;;;;;;;0.62;55.09;101289.06;5055162;28;20049;-80
2022/02/13 01:08:06;;;;;;;18.52;10.20;;;;;;;0.59;55.05;101276.09;5052026;28;20081;-77
2022/02/13 01:10:33;;;;;;;20.08;11.18;;;;;;;0.53;55.07;101271.84;5053047;28;20118;-77
2022/02/13 01:13:01;;;;;;;26.02;9.57;;;;;;;0.48;55.50;101261.50;5050961;28;20515;-82
2022/02/13 01:15:32;;;;;;;24.95;9.70;;;;;;;0.47;55.19;101265.00;5052720;28;20101;-80
2022/02/13 01:18:01;;;;;;;23.90;12.00;;;;;;;0.45;55.44;101258.97;5074686;28;20049;-77
2022/02/13 01:20:28;;;;;;;21.60;10.40;;;;;;;0.41;55.70;101243.44;5085014;28;20047;-76
2022/02/13 01:22:55;;;;;;;24.23;10.80;;;;;;;0.38;55.39;101240.00;5077363;28;20143;-79
2022/02/13 01:25:22;;;;;;;19.20;8.85;;;;;;;0.36;55.29;101233.97;5074536;28;20049;-79
2022/02/13 01:27:49;;;;;;;16.20;8.88;;;;;;;0.34;55.53;101232.25;5082580;28;20045;-78
2022/02/13 01:30:16;;;;;;;22.58;9.77;;;;;;;0.32;55.66;101234.00;5081156;28;20696;-82
2022/02/13 01:32:43;;;;;;;21.38;10.27;;;;;;;0.32;55.34;101228.81;5086631;28;20044;-79
2022/02/13 01:35:12;;;;;;;22.02;11.20;;;;;;;0.30;55.60;101225.38;5088350;28;20068;-79
2022/02/13 01:37:39;;;;;;;13.73;8.88;;;;;;;0.29;55.77;101223.66;5089596;28;20045;-75
2022/02/13 01:40:08;;;;;;;20.60;9.73;;;;;;;0.29;55.48;101210.66;5078545;28;20104;-77
2022/02/13 01:42:35;;;;;;;17.83;10.18;;;;;;;0.29;55.50;101208.06;5077957;28;20340;-80
2022/02/13 01:45:03;;;;;;;24.70;9.70;;;;;;;0.27;55.54;101197.72;5076799;28;20083;-78
2022/02/13 01:47:30;;;;;;;24.50;10.93;;;;;;;0.28;55.74;101201.16;5076570;28;20128;-80
2022/02/13 01:49:58;;;;;;;18.80;10.15;;;;;;;0.28;55.56;101191.63;5078534;28;20085;-82
2022/02/13 01:52:27;;;;;;;22.77;9.82;;;;;;;0.29;55.76;101188.16;5076304;28;20133;-78
2022/02/13 01:54:54;;;;;;;19.80;10.70;;;;;;;0.27;55.80;101189.94;5078218;28;20079;-81
2022/02/13 01:57:22;;;;;;;18.75;10.20;;;;;;;0.27;55.50;101183.84;5076911;28;20120;-76
2022/02/13 01:59:49;;;;;;;18.23;9.57;;;;;;;0.26;55.72;101180.41;5072791;28;20052;-77
2022/02/13 02:02:16;;;;;;;16.88;11.05;;;;;;;0.26;55.67;101183.00;5075522;28;20050;-79
2022/02/13 02:04:43;;;;;;;20.13;9.75;;;;;;;0.27;55.77;101178.66;5074796;28;20044;-76
2022/02/13 02:07:10;;;;;;;24.80;9.27;;;;;;;0.30;55.90;101187.25;5072987;28;20040;-73
2022/02/13 02:09:39;;;;;;;22.35;9.38;;;;;;;0.33;55.96;101187.22;5071199;28;20051;-75
2022/02/13 02:12:07;;;;;;;28.50;10.68;;;;;;;0.36;55.49;101178.50;5071583;28;20132;-74
2022/02/13 02:14:34;;;;;;;20.27;9.80;;;;;;;0.38;55.63;101176.78;5074936;28;20177;-76
2022/02/13 02:17:00;;;;;;;23.45;10.15;;;;;;;0.37;55.42;101170.69;5072746;28;20120;-79
2022/02/13 02:19:31;;;;;;;20.63;8.32;;;;;;;0.39;55.81;101168.06;5075063;28;20055;-79
2022/02/13 02:21:58;;;;;;;27.10;11.68;;;;;;;0.40;55.46;101169.81;5073452;28;20059;-83
2022/02/13 02:24:27;;;;;;;16.65;9.05;;;;;;;0.42;55.50;101173.22;5075702;28;20049;-79
2022/02/13 02:26:54;;;;;;;25.23;11.05;;;;;;;0.41;55.55;101175.84;5074092;28;20575;-78
2022/02/13 02:29:21;;;;;;;18.92;8.50;;;;;;;0.40;55.63;101167.22;5075837;28;20044;-78
2022/02/13 02:31:48;;;;;;;16.70;8.90;;;;;;;0.41;55.72;101168.91;5082932;28;20048;-73
2022/02/13 02:34:15;;;;;;;26.65;11.27;;;;;;;0.43;55.55;101154.13;5079499;28;20985;-80
2022/02/13 02:36:42;;;;;;;18.27;8.85;;;;;;;0.47;55.61;101155.81;5075415;28;20117;-83
2022/02/13 02:39:09;;;;;;;20.17;9.40;;;;;;;0.48;55.35;101152.31;5074297;28;20123;-80
2022/02/13 02:41:38;;;;;;;22.02;9.88;;;;;;;0.51;55.64;101154.88;5072562;28;20087;-79
2022/02/13 02:44:05;;;;;;;18.70;8.85;;;;;;;0.51;55.55;101156.63;5071587;28;20119;-76
2022/02/13 02:46:32;;;;;;;15.23;7.63;;;;;;;0.55;55.54;101147.91;5070644;28;20041;-77
2022/02/13 02:49:02;;;;;;;20.15;9.73;;;;;;;0.56;55.34;101157.44;5070138;28;20052;-76
2022/02/13 02:51:29;;;;;;;19.17;9.50;;;;;;;0.59;55.46;101149.56;5071487;28;20048;-82
2022/02/13 02:53:56;;;;;;;19.08;9.02;;;;;;;0.63;55.28;101155.56;5070805;28;20116;-81
2022/02/13 02:56:24;;;;;;;19.48;8.43;;;;;;;0.67;55.34;101149.44;5072651;28;20052;-80
2022/02/13 02:58:52;;;;;;;21.08;9.85;;;;;;;0.68;55.15;101148.53;5071272;28;20049;-80
2022/02/13 03:01:19;;;;;;;17.13;8.07;;;;;;;0.72;55.25;101150.19;5072839;28;20131;-77
2022/02/13 03:03:47;;;;;;;11.32;7.00;;;;;;;0.76;55.37;101142.34;5071799;28;20051;-80
2022/02/13 03:06:13;;;;;;;16.63;8.40;;;;;;;0.81;55.11;101144.88;5073539;28;20074;-84
2022/02/13 03:08:40;;;;;;;16.33;6.88;;;;;;;0.84;54.93;101136.97;5073227;28;20500;-80
2022/02/13 03:11:09;;;;;;;17.70;7.57;;;;;;;0.89;54.90;101134.31;5076252;28;20441;-82
2022/02/13 03:13:38;;;;;;;14.32;7.88;;;;;;;0.89;54.98;101129.97;5077828;28;20083;-83
2022/02/13 03:16:08;;;;;;;14.07;7.45;;;;;;;0.91;55.14;101125.59;5081832;28;20123;-82
2022/02/13 03:18:35;;;;;;;13.13;6.60;;;;;;;0.93;54.62;101118.59;5075747;28;20044;-78
2022/02/13 03:21:02;;;;;;;15.05;7.75;;;;;;;0.97;54.61;101124.59;5072918;28;20136;-82
2022/02/13 03:23:29;;;;;;;21.90;8.65;;;;;;;0.98;54.86;101110.72;5073332;28;20560;-80
2022/02/13 03:25:56;;;;;;;13.15;8.35;;;;;;;1.00;54.69;101110.69;5071848;28;20127;-80
2022/02/13 03:28:23;;;;;;;16.92;7.55;;;;;;;0.99;54.48;101119.38;5086101;28;20098;-81
2022/02/13 03:30:50;;;;;;;17.33;8.55;;;;;;;1.00;54.54;101118.50;5083131;28;20284;-74
2022/02/13 03:33:19;;;;;;;18.08;6.95;;;;;;;0.99;54.38;101116.78;5084054;28;20064;-74
2022/02/13 03:35:46;;;;;;;25.10;8.52;;;;;;;1.00;54.37;101111.56;5085060;28;20060;-82
2022/02/13 03:38:14;;;;;;;16.08;7.40;;;;;;;1.00;54.55;101116.75;5086298;28;20078;-78
2022/02/13 03:40:41;;;;;;;16.23;8.77;;;;;;;1.00;54.53;101114.16;5086561;28;20167;-76
2022/02/13 03:43:10;;;;;;;16.02;7.32;;;;;;;1.00;54.44;101108.09;5080071;28;20199;-80
2022/02/13 03:45:38;;;;;;;12.95;7.25;;;;;;;0.99;54.47;101108.97;5075270;28;20480;-80
2022/02/13 03:48:06;;;;;;;20.77;7.18;;;;;;;1.00;54.44;101102.91;5073639;28;20108;-79
2022/02/13 03:50:34;;;;;;;19.05;8.98;;;;;;;1.00;54.17;101097.69;5078504;28;20216;-83
2022/02/13 03:53:01;;;;;;;15.60;7.47;;;;;;;0.99;54.17;101094.25;5077538;28;20104;-77
2022/02/13 03:55:30;;;;;;;17.58;8.73;;;;;;;1.00;54.15;101093.34;5074705;28;20057;-79
2022/02/13 03:57:59;;;;;;;16.27;8.15;;;;;;;0.99;53.96;101091.66;5074627;28;20083;-78
2022/02/13 04:00:26;;;;;;;11.95;6.22;;;;;;;1.01;54.01;101089.88;5071692;28;20053;-76
2022/02/13 04:02:55;;;;;;;17.08;8.50;;;;;;;1.00;54.05;101084.69;5071267;28;20051;-77
2022/02/13 04:05:23;;;;;;;19.00;7.47;;;;;;;0.97;54.08;101077.78;5069343;28;20044;-74
2022/02/13 04:07:52;;;;;;;18.23;8.63;;;;;;;0.94;54.07;101076.13;5074552;28;20041;-81
2022/02/13 04:10:19;;;;;;;17.05;10.27;;;;;;;0.93;53.84;101082.19;5081348;28;20128;-82
2022/02/13 04:12:46;;;;;;;22.02;8.38;;;;;;;0.91;54.06;101070.13;5075840;28;20060;-83
2022/02/13 04:15:13;;;;;;;17.08;8.25;;;;;;;0.89;54.16;101080.53;5075469;28;20057;-85
2022/02/13 04:17:43;;;;;;;18.35;9.07;;;;;;;0.91;53.94;101075.31;5073498;28;20570;-84
2022/02/13 04:20:11;;;;;;;20.92;9.95;;;;;;;0.90;54.15;101068.38;5075082;28;20072;-83
2022/02/13 04:22:39;;;;;;;26.23;9.90;;;;;;;0.92;53.99;101062.28;5075724;28;20029;-79
2022/02/13 04:25:08;;;;;;;18.15;9.35;;;;;;;0.90;53.76;101056.25;5074582;28;20124;-80
2022/02/13 04:27:36;;;;;;;18.88;8.85;;;;;;;0.91;53.86;101052.75;5071509;28;20109;-83
2022/02/13 04:30:04;;;;;;;23.05;9.88;;;;;;;0.91;53.86;101047.56;5071387;28;20533;-82
2022/02/13 04:32:31;;;;;;;16.58;9.80;;;;;;;0.93;53.96;101048.38;5074798;28;20083;-84
2022/02/13 04:34:58;;;;;;;22.52;10.40;;;;;;;0.92;53.98;101044.06;5076501;28;20055;-84
2022/02/13 04:37:26;;;;;;;21.10;9.10;;;;;;;0.97;53.69;101041.38;5075362;28;20052;-84
2022/02/13 04:39:53;;;;;;;22.75;9.43;;;;;;;0.99;53.74;101043.94;5073462;28;20076;-80
2022/02/13 04:42:22;;;;;;;24.02;9.90;;;;;;;0.97;53.71;101035.31;5073371;28;20109;-83
2022/02/13 04:44:50;;;;;;;19.52;8.93;;;;;;;0.98;53.73;101029.25;5073795;28;20044;-83
2022/02/13 04:47:17;;;;;;;16.17;8.20;;;;;;;1.00;53.89;101030.06;5073192;28;20075;-79
2022/02/13 04:49:46;;;;;;;20.35;11.50;;;;;;;0.99;53.82;101025.72;5076445;28;20135;-83
2022/02/13 04:52:13;;;;;;;24.15;9.50;;;;;;;0.97;53.82;101024.91;5077074;28;20106;-82
2022/02/13 04:54:40;;;;;;;13.63;7.72;;;;;;;0.94;53.71;101021.50;5074826;28;20136;-85
2022/02/13 04:57:07;;;;;;;16.92;8.98;;;;;;;0.94;53.88;101021.50;5072587;28;20049;-77
2022/02/13 04:59:37;;;;;;;22.25;9.82;;;;;;;0.94;53.63;101018.03;5070876;28;20088;-74
2022/02/13 05:02:05;;;;;;;19.77;10.05;;;;;;;0.92;53.66;101012.03;5075739;28;20062;-80
2022/02/13 05:04:32;;;;;;;22.73;10.40;;;;;;;0.93;53.69;101018.91;5087099;28;20080;-78
2022/02/13 05:06:59;;;;;;;15.63;8.63;;;;;;;0.92;53.61;101012.03;5087084;28;20029;-79
2022/02/13 05:09:26;;;;;;;20.08;8.77;;;;;;;0.91;53.71;101016.34;5087482;28;20060;-80
2022/02/13 05:11:55;;;;;;;19.95;9.77;;;;;;;0.91;53.63;101008.53;5088675;28;20028;-77
2022/02/13 05:14:22;;;;;;;19.60;8.85;;;;;;;0.88;53.65;101003.41;5087039;28;20047;-77
2022/02/13 05:16:53;;;;;;;20.02;9.43;;;;;;;0.88;53.81;101010.34;5087097;28;20056;-81
2022/02/13 05:19:20;;;;;;;16.40;8.07;;;;;;;0.85;53.66;101011.28;5087466;28;20108;-80
2022/02/13 05:21:47;;;;;;;20.77;8.90;;;;;;;0.83;53.69;101002.66;5080470;28;20080;-84
2022/02/13 05:24:14;;;;;;;22.17;10.07;;;;;;;0.80;53.71;101010.50;5086051;28;20153;-79
2022/02/13 05:26:41;;;;;;;15.70;9.02;;;;;;;0.78;53.63;101009.69;5085917;28;20052;-78
2022/02/13 05:29:09;;;;;;;19.58;10.65;;;;;;;0.76;53.87;101008.88;5084444;28;20133;-85
2022/02/13 05:31:35;;;;;;;17.48;8.60;;;;;;;0.77;53.77;101002.75;5085521;28;20052;-82
2022/02/13 05:34:04;;;;;;;21.33;10.27;;;;;;;0.74;54.04;101006.28;5083578;28;20075;-80
2022/02/13 05:36:31;;;;;;;20.13;9.73;;;;;;;0.70;53.76;101007.25;5080982;28;20104;-79
2022/02/13 05:38:58;;;;;;;20.80;11.35;;;;;;;0.70;53.83;101008.97;5066632;28;20049;-81
2022/02/13 05:41:25;;;;;;;21.02;9.15;;;;;;;0.68;53.85;101008.16;5035443;28;20056;-80
2022/02/13 05:43:52;;;;;;;14.60;9.73;;;;;;;0.67;54.03;101007.28;5034931;28;20128;-83
2022/02/13 05:46:19;;;;;;;17.08;9.38;;;;;;;0.65;53.91;100998.69;5034293;28;20049;-81
2022/02/13 05:48:47;;;;;;;15.57;8.68;;;;;;;0.66;53.80;100996.91;5032438;28;20073;-80
2022/02/13 05:51:15;;;;;;;15.13;8.60;;;;;;;0.66;53.81;100989.13;5033226;28;20140;-77
2022/02/13 05:53:42;;;;;;;19.63;9.38;;;;;;;0.65;53.92;100990.88;5033907;28;20397;-80
2022/02/13 05:56:09;;;;;;;18.33;9.20;;;;;;;0.65;53.88;100984.78;5032417;28;20060;-85
2022/02/13 05:58:40;;;;;;;17.02;9.60;;;;;;;0.64;53.89;100988.31;5033418;28;20071;-80
2022/02/13 06:01:07;;;;;;;20.48;10.82;;;;;;;0.63;53.88;100981.38;5037171;28;20123;-84
2022/02/13 06:03:34;;;;;;;16.60;8.60;;;;;;;0.66;53.92;100986.53;5066617;28;20041;-83
2022/02/13 06:06:01;;;;;;;21.50;8.80;;;;;;;0.64;54.04;100985.69;5032759;28;20681;-81
2022/02/13 06:08:30;;;;;;;18.27;9.75;;;;;;;0.65;54.13;100987.41;5047567;28;20041;-81
2022/02/13 06:10:57;;;;;;;16.42;8.65;;;;;;;0.68;53.96;100987.34;5052745;28;20056;-85
2022/02/13 06:13:25;;;;;;;19.08;10.95;;;;;;;0.71;53.81;100987.28;5054263;28;20081;-85
2022/02/13 06:15:52;;;;;;;18.38;8.50;;;;;;;0.73;53.74;100977.72;5052809;28;20589;-80
2022/02/13 06:18:20;;;;;;;21.67;10.73;;;;;;;0.77;53.73;100971.56;5055134;28;20132;-79
2022/02/13 06:20:47;;;;;;;18.08;9.23;;;;;;;0.79;53.74;100980.19;5056131;28;20132;-80
2022/02/13 06:23:16;;;;;;;18.08;9.57;;;;;;;0.80;53.51;100976.69;5050983;28;20129;-85
2022/02/13 06:25:44;;;;;;;23.17;9.77;;;;;;;0.83;53.84;100971.44;5053120;28;20041;-82
2022/02/13 06:28:13;;;;;;;17.92;10.27;;;;;;;0.83;53.83;100976.66;5054049;28;20051;-82
2022/02/13 06:30:41;;;;;;;21.60;10.60;;;;;;;0.84;53.78;100967.09;5052021;28;20067;-82
2022/02/13 06:33:08;;;;;;;19.20;9.68;;;;;;;0.87;53.82;100959.22;5053094;28;20129;-75
2022/02/13 06:35:35;;;;;;;19.52;10.43;;;;;;;0.90;53.62;100961.75;5050499;28;20247;-82
2022/02/13 06:38:03;;;;;;;21.85;9.65;;;;;;;0.92;53.82;100960.84;5050463;28;20092;-81
2022/02/13 06:40:31;;;;;;;19.38;12.57;;;;;;;0.97;53.80;100959.88;5050667;28;20128;-77
2022/02/13 06:43:00;;;;;;;21.00;9.63;;;;;;;1.01;53.67;100957.19;5048889;28;20085;-77
2022/02/13 06:45:27;;;;;;;14.57;9.13;;;;;;;1.09;53.81;100957.03;5046432;28;20080;-77
2022/02/13 06:47:54;;;;;;;18.48;10.15;;;;;;;1.17;53.77;100955.13;5048192;28;20485;-81
2022/02/13 06:50:21;;;;;;;19.70;8.45;;;;;;;1.28;53.65;100945.31;5049138;28;20059;-82
2022/02/13 06:52:48;;;;;;;17.42;9.43;;;;;;;1.39;53.61;100949.41;5052007;28;20589;-79
2022/02/13 06:55:15;;;;;;;21.20;9.90;;;;;;;1.50;53.26;100948.25;5050201;28;20052;-81
2022/02/13 06:57:47;;;;;;;16.40;10.13;;;;;;;1.61;53.11;100935.00;5056918;28;20120;-76
2022/02/13 07:00:17;;;;;;;15.80;8.27;;;;;;;1.74;53.19;100930.31;5058040;28;20136;-84
2022/02/13 07:02:45;;;;;;;21.42;9.70;;;;;;;1.85;52.98;100927.44;5052563;28;20095;-79
2022/02/13 07:05:13;;;;;;;20.73;8.63;;;;;;;1.97;53.03;100924.53;5053646;28;20144;-77
2022/02/13 07:07:40;;;;;;;14.88;8.18;;;;;;;2.09;52.65;100925.97;5053531;28;20087;-76
2022/02/13 07:10:09;;;;;;;12.02;5.38;;;;;;;2.20;52.71;100923.94;5052198;28;20049;-80
2022/02/13 07:12:37;;;;;;;13.63;8.43;;;;;;;2.29;52.53;100918.47;5064020;28;20049;-76
2022/02/13 07:15:06;;;;;;;14.45;9.52;;;;;;;2.36;52.27;100919.16;5061635;28;20076;-71
2022/02/13 07:17:37;;;;;;;16.02;9.45;;;;;;;2.44;52.20;100919.78;5059137;28;20052;-72
2022/02/13 07:20:05;;;;;;;19.67;8.18;;;;;;;2.51;52.30;100914.41;5055323;28;20055;-70
2022/02/13 07:22:32;;;;;;;17.05;9.10;;;;;;;2.56;51.95;100900.34;5051074;28;20045;-73
2022/02/13 07:24:59;;;;;;;17.92;9.02;;;;;;;2.62;51.87;100899.31;5050925;28;20100;-75
2022/02/13 07:27:27;;;;;;;16.00;9.38;;;;;;;2.68;51.66;100891.28;5053685;28;20049;-73
2022/02/13 07:29:54;;;;;;;13.77;7.57;;;;;;;2.76;51.53;100901.50;5053730;28;20072;-72
2022/02/13 07:32:21;;;;;;;16.85;9.50;;;;;;;2.81;51.37;100895.25;5051962;28;20617;-72
2022/02/13 07:34:51;;;;;;;19.42;9.88;;;;;;;2.90;51.17;100895.84;5052271;28;20049;-73
2022/02/13 07:37:18;;;;;;;16.52;8.57;;;;;;;2.99;50.98;100892.97;5015577;28;20095;-76
2022/02/13 07:39:45;;;;;;;20.33;8.25;;;;;;;3.09;50.83;100893.56;5055002;28;20051;-74
2022/02/13 07:42:12;;;;;;;16.10;9.63;;;;;;;3.18;50.66;100898.47;5052116;28;20069;-72
2022/02/13 07:44:41;;;;;;;14.90;8.95;;;;;;;3.27;50.64;100897.34;5054799;28;20084;-74
2022/02/13 07:47:08;;;;;;;16.05;9.57;;;;;;;3.34;50.59;100893.63;5047319;28;20044;-78
2022/02/13 07:49:35;;;;;;;13.77;8.85;;;;;;;3.42;50.42;100889.88;5050442;28;20045;-71
2022/02/13 07:52:05;;;;;;;16.15;8.68;;;;;;;3.52;50.26;100879.97;5047214;28;20076;-71
2022/02/13 07:54:32;;;;;;;15.70;8.38;;;;;;;3.60;50.06;100880.56;5047604;28;20132;-67
2022/02/13 07:56:59;;;;;;;18.73;11.32;;;;;;;3.67;49.79;100888.19;5050231;28;20123;-71
2022/02/13 07:59:27;;;;;;;13.75;7.72;;;;;;;3.72;49.74;100881.91;5048806;28;20200;-73
2022/02/13 08:01:54;;;;;;;21.92;9.57;;;;;;;3.81;49.48;100889.44;5012990;28;20699;-82
2022/02/13 08:04:22;;;;;;;16.90;9.07;;;;;;;3.92;49.38;100878.59;5047699;28;20041;-74
2022/02/13 08:06:50;;;;;;;9.25;5.00;;;;;;;4.02;49.36;100876.53;5009740;28;20260;-76
2022/02/13 08:09:18;;;;;;;16.80;9.38;;;;;;;4.09;49.15;100872.81;5046838;28;20507;-71
2022/02/13 08:11:45;;;;;;;17.40;8.88;;;;;;;4.22;49.17;100862.75;5046236;28;20613;-74
2022/02/13 08:14:13;;;;;;;24.73;11.00;;;;;;;4.25;48.95;100865.25;5044217;28;20129;-73
2022/02/13 08:16:40;;;;;;;19.08;9.27;;;;;;;4.34;48.65;100858.81;5044788;28;20109;-77
2022/02/13 08:19:06;;;;;;;16.13;9.70;;;;;;;4.37;48.43;100856.94;5040017;28;20480;-73
2022/02/13 08:21:35;;;;;;;21.67;9.05;;;;;;;4.48;48.07;100858.31;5028064;28;20084;-78
2022/02/13 08:24:03;;;;;;;17.20;9.68;;;;;;;4.55;48.07;100857.16;5049819;28;20083;-82
2022/02/13 08:26:31;;;;;;;16.80;9.18;;;;;;;4.63;47.93;100856.88;5054970;28;20146;-76
2022/02/13 08:29:00;;;;;;;25.60;9.73;;;;;;;4.71;47.93;100853.06;5059369;28;20126;-77
2022/02/13 08:31:26;;;;;;;18.23;9.93;;;;;;;4.82;47.86;100854.41;5055956;28;20069;-78
2022/02/13 08:33:53;;;;;;;18.92;9.30;;;;;;;4.91;47.72;100847.03;5051440;28;20068;-77
2022/02/13 08:36:20;;;;;;;22.27;10.55;;;;;;;4.98;47.54;100847.66;5050334;28;20492;-77
2022/02/13 08:38:47;;;;;;;23.52;9.57;;;;;;;5.05;47.27;100836.03;5052336;28;20084;-76
2022/02/13 08:41:14;;;;;;;16.60;9.88;;;;;;;5.13;46.99;100841.81;5048146;28;20129;-77
2022/02/13 08:43:43;;;;;;;17.92;10.88;;;;;;;5.21;46.70;100846.75;5052546;28;20463;-80
2022/02/13 08:46:10;;;;;;;20.25;11.23;;;;;;;5.22;46.70;100830.13;5054598;28;20140;-81
2022/02/13 08:48:38;;;;;;;16.90;10.27;;;;;;;5.27;46.62;100843.00;5057652;28;20123;-83
2022/02/13 08:51:05;;;;;;;13.70;9.20;;;;;;;5.36;46.47;100843.47;5053069;28;20049;-76
2022/02/13 08:53:32;;;;;;;18.70;9.77;;;;;;;5.46;46.58;100841.34;5053772;28;20220;-76
2022/02/13 08:55:59;;;;;;;20.95;9.02;;;;;;;5.59;46.24;100839.06;5056009;28;20183;-76
2022/02/13 08:58:26;;;;;;;21.02;9.45;;;;;;;5.71;46.32;100843.78;5021150;28;20044;-80
2022/02/13 09:00:56;;;;;;;18.00;9.35;;;;;;;5.82;46.12;100845.09;5059201;28;20041;-76
2022/02/13 09:03:23;;;;;;;18.08;10.45;;;;;;;5.90;45.74;100833.34;5056454;28;20068;-73
2022/02/13 09:05:50;;;;;;;17.85;9.80;;;;;;;6.05;45.64;100838.84;5058486;28;20041;-75
2022/02/13 09:08:18;;;;;;;14.00;7.30;;;;;;;6.16;45.64;100838.38;5057264;28;20128;-71
2022/02/13 09:10:45;;;;;;;14.52;7.80;;;;;;;6.38;45.41;100839.13;5055852;28;20104;-76
2022/02/13 09:13:12;;;;;;;16.80;9.50;;;;;;;6.55;45.01;100830.47;5059405;28;20049;-72
2022/02/13 09:15:39;;;;;;;17.23;8.73;;;;;;;6.76;44.84;100839.13;5064546;28;20091;-73
2022/02/13 09:18:13;;;;;;;19.65;11.30;;;;;;;6.97;44.47;100828.50;5063967;28;20052;-76
2022/02/13 09:20:44;;;;;;;17.83;8.77;;;;;;;7.15;44.40;100837.25;5062043;28;20091;-71
2022/02/13 09:23:14;;;;;;;21.52;9.40;;;;;;;7.25;44.00;100828.00;5050781;28;20055;-73
2022/02/13 09:25:41;;;;;;;18.13;8.90;;;;;;;7.40;43.71;100824.63;5052127;28;20068;-73
2022/02/13 09:28:09;;;;;;;21.38;10.25;;;;;;;7.53;43.64;100821.41;5062271;28;20105;-79
2022/02/13 09:30:37;;;;;;;20.40;9.65;;;;;;;7.72;43.21;100823.91;5062244;28;20045;-72
2022/02/13 09:33:04;;;;;;;17.75;11.15;;;;;;;7.82;42.65;100812.00;5061499;28;20073;-74
2022/02/13 09:35:33;;;;;;;18.77;9.18;;;;;;;7.83;42.65;100806.66;5055338;28;20103;-73
2022/02/13 09:38:00;;;;;;;14.13;9.25;;;;;;;7.84;42.47;100815.41;5053337;28;20133;-72
2022/02/13 09:40:33;;;;;;;21.98;11.10;;;;;;;7.82;42.25;100804.13;5058317;28;20072;-73
2022/02/13 09:43:02;;;;;;;22.67;10.60;;;;;;;7.65;42.38;100805.84;5059192;28;20234;-75
2022/02/13 09:45:32;;;;;;;19.63;11.32;;;;;;;7.39;42.42;100798.44;5054065;28;20045;-74
2022/02/13 09:48:01;;;;;;;16.98;10.90;;;;;;;7.15;42.93;100793.47;5049302;28;20108;-75
2022/02/13 09:50:30;;;;;;;20.98;9.85;;;;;;;7.01;43.29;100791.53;5054600;28;20045;-76
2022/02/13 09:53:01;;;;;;;17.23;8.40;;;;;;;6.96;43.11;100792.69;5053339;28;20041;-73
2022/02/13 09:55:29;;;;;;;20.70;12.02;;;;;;;6.87;43.07;100786.09;5051753;28;20106;-76
2022/02/13 09:58:04;;;;;;;20.15;12.48;;;;;;;6.87;42.99;100779.06;5049219;28;20128;-75
2022/02/13 10:00:56;;;;;;;18.20;10.55;;;;;;;6.81;43.15;100783.78;5045204;28;20119;-76
2022/02/13 10:03:26;;;;;;;16.63;9.10;;;;;;;6.71;43.29;100778.09;5051349;28;20045;-73
2022/02/13 10:05:54;;;;;;;15.68;8.63;;;;;;;6.76;43.21;100767.38;5044787;28;20064;-73
2022/02/13 10:08:32;;;;;;;19.58;10.05;;;;;;;7.12;42.73;100763.88;5048287;28;20080;-71
2022/02/13 10:11:15;;;;;;;15.75;8.38;;;;;;;7.35;42.50;100763.56;5046356;28;20045;-72
2022/02/13 10:13:57;;;;;;;15.13;9.32;;;;;;;7.43;42.57;100752.66;5047570;28;20689;-75
2022/02/13 10:16:28;;;;;;;14.95;10.75;;;;;;;7.51;42.31;100754.88;5043590;28;20107;-74
2022/02/13 10:18:59;;;;;;;17.95;10.93;;;;;;;7.59;42.09;100750.94;5045803;28;20078;-73
2022/02/13 10:21:45;;;;;;;20.02;10.02;;;;;;;7.71;42.06;100746.81;5052639;28;20088;-72
2022/02/13 10:27:13;;;;;;;;;;;;;;;8.28;41.40;100738.47;5137582;27;20126;-72
2022/02/13 10:29:42;;;;;;;17.30;9.32;;;;;;;8.16;41.45;100742.66;5114624;28;20069;-73
2022/02/13 10:32:20;;;;;;;18.85;10.73;;;;;;;8.11;41.82;100742.06;5109127;28;20389;-79
2022/02/13 10:34:59;;;;;;;16.80;10.52;;;;;;;8.14;41.83;100735.75;5113477;28;20063;-71
2022/02/13 10:37:38;;;;;;;20.42;11.50;;;;;;;8.09;41.94;100717.63;5090674;28;20049;-70
2022/02/13 10:40:07;;;;;;;16.50;10.13;;;;;;;7.96;42.03;100716.56;5095597;28;20080;-74
2022/02/13 10:42:35;;;;;;;14.75;9.65;;;;;;;7.90;42.25;100714.28;5090909;28;20075;-73
2022/02/13 10:45:19;;;;;;;15.07;8.93;;;;;;;7.71;42.50;100710.00;5101137;28;20050;-77
2022/02/13 10:47:47;;;;;;;19.17;9.80;;;;;;;7.65;42.53;100707.69;5119855;28;20736;-77
2022/02/13 10:50:17;;;;;;;15.70;10.77;;;;;;;7.65;42.28;100708.56;5119430;28;20078;-77
2022/02/13 10:52:46;;;;;;;15.75;9.90;;;;;;;7.66;42.25;100705.00;5109893;28;20040;-76
2022/02/13 10:55:14;;;;;;;15.43;9.02;;;;;;;7.80;42.20;100693.75;5108709;28;20040;-73
2022/02/13 10:57:44;;;;;;;15.13;9.93;;;;;;;7.93;42.12;100687.81;5110590;28;20115;-72
2022/02/13 11:00:12;;;;;;;21.88;9.57;;;;;;;8.05;42.06;100681.91;5111515;28;20062;-72
2022/02/13 11:02:40;;;;;;;16.80;10.93;;;;;;;8.22;41.73;100687.03;5110236;27;20059;-72
2022/02/13 11:05:10;;;;;;;17.15;8.20;;;;;;;8.36;41.63;100675.75;5101527;28;20040;-76
2022/02/13 11:07:41;;;;;;;21.48;11.05;;;;;;;8.44;41.69;100680.59;5098052;28;20071;-74
2022/02/13 11:10:11;;;;;;;24.27;13.88;;;;;;;8.45;41.53;100674.44;5098894;28;20071;-73
2022/02/13 11:12:56;;;;;;;24.38;10.35;;;;;;;8.55;41.45;100670.34;5099227;28;20056;-74
2022/02/13 11:15:29;;;;;;;18.85;9.90;;;;;;;8.61;41.48;100662.06;5096271;28;20116;-75
2022/02/13 11:18:03;;;;;;;18.02;9.48;;;;;;;8.64;41.44;100652.28;5083278;28;20100;-77
2022/02/13 11:20:32;;;;;;;21.00;11.68;;;;;;;8.71;41.16;100654.47;5086379;28;20059;-76
2022/02/13 11:23:21;;;;;;;17.98;10.20;;;;;;;8.69;41.37;100647.63;5086329;28;20679;-74
2022/02/13 11:25:51;;;;;;;22.65;12.07;;;;;;;8.67;41.15;100641.59;5082889;28;20507;-78
2022/02/13 11:28:24;;;;;;;28.95;13.30;;;;;;;8.61;41.04;100641.00;5087204;28;20182;-80
2022/02/13 11:30:52;;;;;;;20.98;9.73;;;;;;;8.57;40.89;100634.22;5084434;28;20453;-68
2022/02/13 11:33:44;;;;;;;23.15;12.40;;;;;;;8.68;41.05;100628.34;5079441;28;20052;-69